Munhall, PA

2:46 AM EDT on August 26, 2016 (GMT -0400)
Squirrel Hill | | Change Station

Elev 1060 ft 40.44 °N, 79.94 °W | Updated 17 minutes ago

Scattered Clouds
Scattered Clouds
76.1 °F
Feels Like 77 °F
N
0.6
Wind Variable Wind from NE

Today
High -- | Low -- °F
--% Chance of Precip.
Yesterday
High -- | Low -- °F
Precip. -- in
Pressure 30.07 in
Visibility 10.0 miles
Clouds Few 4100 ft
Scattered Clouds 4800 ft
Scattered Clouds 6500 ft
Heat Index 77 °F
Dew Point 69 °F
Humidity 83%
Rainfall 0.86 in
Snow Depth Not available.
6:41 AM 8:00 PM
Last Quarter, 37% visible
METAR KAGC 260553Z 24006KT 10SM FEW041 SCT048 SCT065 23/22 A3008 RMK AO2 RAE09 SLP181 P0001 60047 T02330217 10283 20222 51011
Pressure 30.07 in
Visibility 10.0 miles
Clouds Few 4100 ft
Scattered Clouds 4800 ft
Scattered Clouds 6500 ft
Heat Index 77 °F
Dew Point 69 °F
Humidity 83%
Rainfall 0.86 in
Snow Depth Not available.
6:41 AM 8:00 PM
Last Quarter, 37% visible
METAR KAGC 260553Z 24006KT 10SM FEW041 SCT048 SCT065 23/22 A3008 RMK AO2 RAE09 SLP181 P0001 60047 T02330217 10283 20222 51011

10-Day Weather Forecast

Almanac

Astronomy

Aug. 26, 2016 Rise Set
Actual Time
Civil Twilight
Nautical Twilight
Astronomical Twilight
Moon
Length of Visible Light
Length of Day
Tomorrow will be .
, % of the Moon is Illuminated

Today's Extremes

State Highs State Lows

Community

WunderPhotos

Upload Photos

1,935,063 photos uploaded!

WunderBlog® & News

Nearby

Air Quality

  Air Quality AQ Index Pollutant
Not available.

Snow Depth

Station Depth Elevation

Earthquake Activity

City Distance Mag. Time & Date
Minimum magnitude displayed is 2.5.

Coastal Water Temperatures

Place Temperature

Stations

Nearby Weather Stations

Station Location Temp. Windchill Dew Point Humidity Wind Precip. Elev Updated Type
                   

Watches & Warnings

There are currently no watches in effect.